Terminal Aerodrome Forecast
Issued by NWS

Home | Current Version | Previous Version | Text Only | Print | Product List | Glossary On
Versions: 1 2 3 4 5 6 7 8 9 10 11 12
000
FTUS43 KICT 022334
TAFRSL
TAF
KRSL 022334Z 0300/0324 19008KT P6SM BKN250
     FM030200 17010KT P6SM SCT070 BKN250
     FM031000 22006KT P6SM SKC
     FM031600 22008KT P6SM BKN250=

USA.gov is the U.S. government's official web portal to all federal, state and local government web resources and services.